Hauptseite
METAR-TAF:

METAR-TAF

Flughäfen :

Perugia, Italien

Flughafen Perugia

Breite: 43-05N, Länge: 012-30E, Höhe: 208 m

Beobachtung

Neuester Wetterbericht von vor 1 Stunde und 8 Minuten, um 18:50 UTC
Wind 1 kt aus unterschiedlichen Richtungen
Temperatur 7°C
Luftfeuchtigkeit 81%
Luftdruck 1014 hPa
Sichtweite 10 km oder mehr
Durchbrochene Bewölkung in der Höhe von 6000 ft

METAR: LIRZ 221850Z VRB01KT 9999 BKN060 07/04 Q1014

Zeit: 20:58 (19:58 UTC)

Prognose

Neuester Wetterbericht von vor 2 Stunden und 58 Minuten, um 17:00 UTC
Gültige Prognose vom 22 um 18 UTC bis 23 um 18 UTC
Wind 5 kt aus unterschiedlichen Richtungen
Sichtweite 10 km oder mehr
Leicht bewölkt in der Höhe von 3000 ft
Zeitweise
vom 22 um 21 UTC bis 23 um 03 UTC
Regen
Übergehend zu
vom 23 um 08 UTC bis 23 um 10 UTC
Wind 10 kt aus Nord/Nordost

TAF: LIRZ 221700Z 2218/2318 VRB05KT 9999 FEW030 TEMPO 2221/2303 RA BECMG 2308/2310 03010KT

Wetterbeobachtungen und Prognosen von mehr als 4000 Flughäfen (METAR und TAF Bericht).

Die verfügbaren Stationen werden durch gelbe und rote Markierungen auf der Karte dargestellt.

Führen Sie die Maus auf sie, um den Namen der Station zu sehen.

Darauf klicken, um die Beobachtung von Wetterbeobachtungen und Prognosen zu sehen.

Um die Karte zu ändern : klicken Sie auf den grünen Tasten mit einem schwarzen Kreuz Zum Vergrößern, auf den grünen Button mit einem Gedankenstrich zu verkleinern, oder auf die grünen Pfeile für benachbarte Karten.


METAR-TAF: